Time,TemperatureF,DewpointF,PressureIn,WindDirection,WindDirectionDegrees,WindSpeedMPH,WindSpeedGustMPH,Humidity,HourlyPrecipIn,Conditions,Clouds,dailyrainin,SoftwareType,DateUTC
2013-04-06 00:02:00,48.0,48.0,-100.00,North,-999,0.0,0.0,100,-99.99,,,-99.99,,2013-04-06 07:02:00,
2013-04-06 00:22:00,48.0,48.0,-100.00,North,-999,0.0,0.0,100,-99.99,,,-99.99,,2013-04-06 07:22:00,
2013-04-06 00:32:00,48.0,48.0,-100.00,North,-999,0.0,0.0,100,-99.99,,,-99.99,,2013-04-06 07:32:00,
2013-04-06 00:53:00,48.0,48.0,-100.00,North,-999,0.0,0.0,100,-99.99,,,-99.99,,2013-04-06 07:53:00,
2013-04-06 01:02:00,49.0,49.0,-100.00,North,-999,0.0,0.0,100,-99.99,,,-99.99,,2013-04-06 08:02:00,
2013-04-06 01:20:00,49.0,49.0,-100.00,North,-999,0.0,0.0,100,-99.99,,,-99.99,,2013-04-06 08:20:00,
2013-04-06 01:22:00,48.0,48.0,-100.00,North,-999,0.0,0.0,100,-99.99,,,-99.99,,2013-04-06 08:22:00,
2013-04-06 01:32:00,49.0,49.0,-100.00,North,-999,0.0,0.0,100,-99.99,,,-99.99,,2013-04-06 08:32:00,
2013-04-06 01:50:00,49.0,49.0,-100.00,North,-999,0.0,0.0,100,-99.99,,,0.00,,2013-04-06 08:50:00,
2013-04-06 01:52:00,49.0,49.0,-100.00,North,-999,0.0,0.0,100,-99.99,,,0.00,,2013-04-06 08:52:00,
2013-04-06 02:02:00,49.0,49.0,-100.00,North,-999,0.0,0.0,100,-99.99,,,0.00,,2013-04-06 09:02:00,
2013-04-06 02:32:00,49.0,49.0,-100.00,North,-999,0.0,0.0,100,-99.99,,,-99.99,,2013-04-06 09:32:00,
2013-04-06 02:50:00,49.0,49.0,-100.00,North,-999,0.0,0.0,100,-99.99,,,0.00,,2013-04-06 09:50:00,
2013-04-06 03:03:00,50.0,50.0,-100.00,North,-999,0.0,0.0,100,-99.99,,,0.00,,2013-04-06 10:03:00,
2013-04-06 03:22:00,50.0,50.0,-100.00,North,-999,0.0,0.0,100,-99.99,,,-99.99,,2013-04-06 10:22:00,
2013-04-06 03:32:00,49.0,49.0,-100.00,North,-999,0.0,0.0,100,-99.99,,,0.00,,2013-04-06 10:32:00,
2013-04-06 03:50:00,47.0,47.0,-100.00,North,-999,0.0,0.0,100,-99.99,,,0.00,,2013-04-06 10:50:00,
2013-04-06 04:02:00,48.0,48.0,-100.00,North,-999,0.0,0.0,100,-99.99,,,0.00,,2013-04-06 11:02:00,
2013-04-06 04:22:00,48.0,48.0,-100.00,North,-999,0.0,0.0,100,-99.99,,,-99.99,,2013-04-06 11:22:00,
2013-04-06 04:32:00,48.0,48.0,-100.00,North,-999,0.0,0.0,100,-99.99,,,0.00,,2013-04-06 11:32:00,
2013-04-06 05:02:00,47.0,47.0,-100.00,North,-999,0.0,0.0,100,-99.99,,,0.00,,2013-04-06 12:02:00,
2013-04-06 05:22:00,48.0,48.0,-100.00,North,-999,0.0,0.0,100,-99.99,,,-99.99,,2013-04-06 12:22:00,
2013-04-06 05:32:00,48.0,48.0,-100.00,North,-999,0.0,0.0,100,-99.99,,,0.00,,2013-04-06 12:32:00,
2013-04-06 05:52:00,47.0,47.0,-100.00,North,-999,0.0,0.0,100,-99.99,,,0.00,,2013-04-06 12:52:00,
2013-04-06 06:02:00,47.0,47.0,-100.00,North,-999,0.0,0.0,100,-99.99,,,0.00,,2013-04-06 13:02:00,
2013-04-06 06:23:00,46.0,46.0,-100.00,North,-999,0.0,0.0,100,-99.99,,,-99.99,,2013-04-06 13:23:00,
2013-04-06 06:32:00,45.0,45.0,-100.00,North,-999,0.0,0.0,100,-99.99,,,0.00,,2013-04-06 13:32:00,
2013-04-06 06:53:00,45.0,45.0,-100.00,North,-999,0.0,0.0,100,-99.99,,,0.00,,2013-04-06 13:53:00,
2013-04-06 07:03:00,45.0,45.0,-100.00,North,-999,0.0,0.0,100,-99.99,,,0.00,,2013-04-06 14:03:00,
2013-04-06 07:22:00,45.0,45.0,-100.00,North,-999,0.0,0.0,100,-99.99,,,0.00,,2013-04-06 14:22:00,
2013-04-06 07:32:00,45.0,45.0,-100.00,North,-999,0.0,0.0,100,-99.99,,,0.00,,2013-04-06 14:32:00,
2013-04-06 08:02:00,45.0,45.0,-100.00,North,-999,0.0,0.0,100,-99.99,,,0.00,,2013-04-06 15:02:00,
2013-04-06 08:22:00,45.0,45.0,-100.00,North,-999,0.0,0.0,100,-99.99,,,0.00,,2013-04-06 15:22:00,
2013-04-06 08:33:00,45.0,45.0,-100.00,North,-999,0.0,0.0,100,-99.99,,,0.00,,2013-04-06 15:33:00,
2013-04-06 08:53:00,47.0,47.0,-100.00,North,-999,0.0,0.0,100,-99.99,,,0.00,,2013-04-06 15:53:00,
2013-04-06 09:04:00,47.0,47.0,-100.00,North,-999,0.0,0.0,100,-99.99,,,0.00,,2013-04-06 16:04:00,
2013-04-06 09:23:00,47.0,47.0,-100.00,North,-999,0.0,0.0,100,-99.99,,,-99.99,,2013-04-06 16:23:00,
2013-04-06 09:32:00,47.0,47.0,-100.00,North,-999,0.0,0.0,100,-99.99,,,0.00,,2013-04-06 16:32:00,
2013-04-06 09:53:00,47.0,47.0,-100.00,North,-999,0.0,0.0,100,-99.99,,,0.00,,2013-04-06 16:53:00,
2013-04-06 10:02:00,47.0,47.0,-100.00,North,-999,0.0,0.0,100,-99.99,,,0.00,,2013-04-06 17:02:00,
2013-04-06 10:22:00,46.0,46.0,-100.00,North,-999,0.0,0.0,100,-99.99,,,-99.99,,2013-04-06 17:22:00,
2013-04-06 10:32:00,47.0,47.0,-100.00,North,-999,0.0,0.0,100,-99.99,,,0.00,,2013-04-06 17:32:00,
2013-04-06 10:52:00,48.0,48.0,-100.00,North,-999,0.0,0.0,100,-99.99,,,0.00,,2013-04-06 17:52:00,
2013-04-06 11:02:00,48.0,48.0,-100.00,North,-999,0.0,0.0,100,-99.99,,,0.00,,2013-04-06 18:02:00,
2013-04-06 11:20:00,48.0,48.0,-100.00,North,-999,0.0,0.0,100,-99.99,,,-99.99,,2013-04-06 18:20:00,
2013-04-06 11:23:00,49.0,49.0,-100.00,North,-999,0.0,0.0,100,-99.99,,,0.00,,2013-04-06 18:23:00,
2013-04-06 11:32:00,48.0,48.0,-100.00,North,-999,0.0,0.0,100,-99.99,,,0.00,,2013-04-06 18:32:00,
2013-04-06 11:50:00,50.0,50.0,-100.00,North,-999,0.0,0.0,100,-99.99,,,-99.99,,2013-04-06 18:50:00,
2013-04-06 11:52:00,46.0,46.0,-100.00,North,-999,0.0,0.0,100,-99.99,,,0.00,,2013-04-06 18:52:00,
2013-04-06 12:02:00,47.0,47.0,-100.00,North,-999,0.0,0.0,100,-99.99,,,0.00,,2013-04-06 19:02:00,
2013-04-06 12:20:00,52.0,52.0,-100.00,North,-999,0.0,0.0,100,-99.99,,,-99.99,,2013-04-06 19:20:00,
2013-04-06 12:32:00,49.0,49.0,-100.00,North,-999,0.0,0.0,100,-99.99,,,0.00,,2013-04-06 19:32:00,
2013-04-06 12:50:00,51.0,51.0,-100.00,North,-999,0.0,0.0,100,-99.99,,,-99.99,,2013-04-06 19:50:00,
2013-04-06 13:02:00,50.0,50.0,-100.00,North,-999,0.0,0.0,100,-99.99,,,0.00,,2013-04-06 20:02:00,
2013-04-06 13:50:00,52.0,52.0,-100.00,North,-999,0.0,0.0,100,-99.99,,,-99.99,,2013-04-06 20:50:00,
2013-04-06 14:02:00,51.0,51.0,-100.00,North,-999,0.0,0.0,100,-99.99,,,0.00,,2013-04-06 21:02:00,
2013-04-06 14:33:00,53.0,53.0,-100.00,North,-999,0.0,0.0,100,-99.99,,,0.00,,2013-04-06 21:33:00,
2013-04-06 15:03:00,54.0,54.0,-100.00,North,-999,0.0,0.0,100,-99.99,,,0.00,,2013-04-06 22:03:00,
2013-04-06 15:22:00,51.0,51.0,-100.00,North,-999,0.0,0.0,100,-99.99,,,-99.99,,2013-04-06 22:22:00,
2013-04-06 15:34:00,52.0,52.0,-100.00,North,-999,0.0,0.0,100,-99.99,,,0.00,,2013-04-06 22:34:00,
2013-04-06 15:53:00,51.0,51.0,-100.00,North,-999,-999.0,-999.0,100,-99.99,,,0.00,,2013-04-06 22:53:00,
2013-04-06 16:03:00,50.0,50.0,-100.00,North,-999,0.0,0.0,100,-99.99,,,0.00,,2013-04-06 23:03:00,
2013-04-06 16:23:00,50.0,50.0,-100.00,North,-999,0.0,0.0,100,-99.99,,,0.00,,2013-04-06 23:23:00,
2013-04-06 16:33:00,49.0,49.0,-100.00,North,-999,0.0,0.0,100,-99.99,,,0.00,,2013-04-06 23:33:00,
2013-04-06 16:50:00,47.0,47.0,-100.00,North,-999,0.0,0.0,100,-99.99,,,0.00,,2013-04-06 23:50:00,
2013-04-06 16:53:00,47.0,47.0,-100.00,North,-999,0.0,0.0,100,-99.99,,,0.00,,2013-04-06 23:53:00,
2013-04-06 17:02:00,47.0,47.0,-100.00,North,-999,0.0,0.0,100,-99.99,,,0.00,,2013-04-07 00:02:00,
2013-04-06 17:22:00,47.0,47.0,-100.00,North,-999,0.0,0.0,100,-99.99,,,0.00,,2013-04-07 00:22:00,
2013-04-06 18:02:00,47.0,47.0,-100.00,North,-999,0.0,0.0,100,-99.99,,,0.00,,2013-04-07 01:02:00,
2013-04-06 18:22:00,47.0,47.0,-100.00,North,-999,0.0,0.0,100,-99.99,,,-99.99,,2013-04-07 01:22:00,
2013-04-06 18:32:00,48.0,48.0,-100.00,North,-999,0.0,0.0,100,-99.99,,,0.00,,2013-04-07 01:32:00,
2013-04-06 18:53:00,47.0,47.0,-100.00,North,-999,0.0,0.0,100,-99.99,,,0.00,,2013-04-07 01:53:00,
2013-04-06 19:02:00,47.0,47.0,-100.00,North,-999,0.0,0.0,100,-99.99,,,0.00,,2013-04-07 02:02:00,
2013-04-06 19:23:00,47.0,47.0,-100.00,North,-999,0.0,0.0,100,-99.99,,,0.00,,2013-04-07 02:23:00,
2013-04-06 19:32:00,47.0,47.0,-100.00,North,-999,0.0,0.0,100,-99.99,,,0.00,,2013-04-07 02:32:00,
2013-04-06 19:50:00,46.0,46.0,-100.00,North,-999,0.0,0.0,100,-99.99,,,0.00,,2013-04-07 02:50:00,
2013-04-06 19:52:00,47.0,47.0,-100.00,North,-999,0.0,0.0,100,-99.99,,,0.00,,2013-04-07 02:52:00,
2013-04-06 20:02:00,47.0,47.0,-100.00,North,-999,0.0,0.0,100,-99.99,,,0.00,,2013-04-07 03:02:00,
2013-04-06 20:20:00,45.0,45.0,-100.00,North,-999,0.0,0.0,100,-99.99,,,0.00,,2013-04-07 03:20:00,
2013-04-06 20:22:00,46.0,46.0,-100.00,North,-999,0.0,0.0,100,-99.99,,,0.00,,2013-04-07 03:22:00,
2013-04-06 20:33:00,46.0,46.0,-100.00,North,-999,0.0,0.0,100,-99.99,,,0.00,,2013-04-07 03:33:00,
2013-04-06 21:03:00,45.0,45.0,-100.00,North,-999,0.0,0.0,100,-99.99,,,0.00,,2013-04-07 04:03:00,
2013-04-06 21:32:00,45.0,45.0,-100.00,North,-999,0.0,0.0,100,-99.99,,,0.00,,2013-04-07 04:32:00,
2013-04-06 21:53:00,44.0,44.0,-100.00,North,-999,0.0,0.0,100,-99.99,,,0.00,,2013-04-07 04:53:00,
2013-04-06 22:02:00,44.0,44.0,-100.00,North,-999,0.0,0.0,100,-99.99,,,0.00,,2013-04-07 05:02:00,
2013-04-06 22:22:00,44.0,44.0,-100.00,North,-999,0.0,0.0,100,-99.99,,,0.00,,2013-04-07 05:22:00,
2013-04-06 22:33:00,44.0,44.0,-100.00,North,-999,0.0,0.0,100,-99.99,,,0.00,,2013-04-07 05:33:00,
2013-04-06 22:50:00,44.0,44.0,-100.00,North,-999,0.0,0.0,100,-99.99,,,-99.99,,2013-04-07 05:50:00,
2013-04-06 22:52:00,44.0,44.0,-100.00,North,-999,0.0,0.0,100,-99.99,,,0.00,,2013-04-07 05:52:00,
2013-04-06 23:02:00,44.0,44.0,-100.00,North,-999,0.0,0.0,100,-99.99,,,0.00,,2013-04-07 06:02:00,
2013-04-06 23:22:00,44.0,44.0,-100.00,North,-999,0.0,0.0,100,-99.99,,,0.00,,2013-04-07 06:22:00,
2013-04-06 23:32:00,44.0,44.0,-100.00,North,-999,0.0,0.0,100,-99.99,,,0.00,,2013-04-07 06:32:00,